Terminal Aerodrome Forecast
Issued by NWS

Home | Current Version | Previous Version | Text Only | Print | Product List | Glossary On
Versions: 1 2 3 4 5 6 7 8 9 10 11 12 13 14 15 16 17 18
253
FTAK31 PAJN 290540
TAFAYA
TAF
PAYA 290540Z 2906/3006 08003KT P6SM FEW020 OVC040
      TEMPO 2906/2910 SCT008 BKN020
     FM291200 VRB05KT P6SM FEW008 SCT020 OVC060
     FM291700 29005KT P6SM SCT060
     FM292100 29007KT P6SM FEW120
      AMD LTD TO CLD VIS AND WIND 2906/2909=

USA.gov is the U.S. government's official web portal to all federal, state and local government web resources and services.